sensor_id;sensor_type;location;lat;lon;timestamp;temperature;humidity
10905;DHT22;5505;51.450;9.254;2023-02-13T00:01:55;5.70;99.90
10905;DHT22;5505;51.450;9.254;2023-02-13T00:04:42;5.70;99.90
10905;DHT22;5505;51.450;9.254;2023-02-13T00:07:29;5.70;99.90
10905;DHT22;5505;51.450;9.254;2023-02-13T00:10:17;5.70;99.90
10905;DHT22;5505;51.450;9.254;2023-02-13T00:13:04;5.70;99.90
10905;DHT22;5505;51.450;9.254;2023-02-13T00:15:58;5.70;99.90
10905;DHT22;5505;51.450;9.254;2023-02-13T00:18:45;5.70;99.90
10905;DHT22;5505;51.450;9.254;2023-02-13T00:21:31;5.70;99.90
10905;DHT22;5505;51.450;9.254;2023-02-13T00:24:19;5.70;99.90
10905;DHT22;5505;51.450;9.254;2023-02-13T00:27:07;5.70;99.90
10905;DHT22;5505;51.450;9.254;2023-02-13T00:29:54;5.70;99.90
10905;DHT22;5505;51.450;9.254;2023-02-13T00:32:40;5.80;99.90
10905;DHT22;5505;51.450;9.254;2023-02-13T00:35:27;5.70;99.90
10905;DHT22;5505;51.450;9.254;2023-02-13T00:38:14;5.70;99.90
10905;DHT22;5505;51.450;9.254;2023-02-13T00:41:01;5.70;99.90
10905;DHT22;5505;51.450;9.254;2023-02-13T00:43:49;5.60;99.90
10905;DHT22;5505;51.450;9.254;2023-02-13T00:46:36;5.60;99.90
10905;DHT22;5505;51.450;9.254;2023-02-13T00:49:23;5.60;99.90
10905;DHT22;5505;51.450;9.254;2023-02-13T00:52:10;5.70;99.90
10905;DHT22;5505;51.450;9.254;2023-02-13T00:54:56;5.60;99.90
10905;DHT22;5505;51.450;9.254;2023-02-13T00:57:43;5.70;99.90
10905;DHT22;5505;51.450;9.254;2023-02-13T01:00:31;5.70;99.90
10905;DHT22;5505;51.450;9.254;2023-02-13T01:03:19;5.70;99.90
10905;DHT22;5505;51.450;9.254;2023-02-13T01:06:06;5.70;99.90
10905;DHT22;5505;51.450;9.254;2023-02-13T01:08:53;5.70;99.90
10905;DHT22;5505;51.450;9.254;2023-02-13T01:11:40;5.70;99.90
10905;DHT22;5505;51.450;9.254;2023-02-13T01:14:27;5.60;99.90
10905;DHT22;5505;51.450;9.254;2023-02-13T01:17:15;5.60;99.90
10905;DHT22;5505;51.450;9.254;2023-02-13T01:20:02;5.60;99.90
10905;DHT22;5505;51.450;9.254;2023-02-13T01:22:49;5.60;99.90
10905;DHT22;5505;51.450;9.254;2023-02-13T01:25:39;5.60;99.90
10905;DHT22;5505;51.450;9.254;2023-02-13T01:28:26;5.60;99.90
10905;DHT22;5505;51.450;9.254;2023-02-13T01:31:13;5.50;99.90
10905;DHT22;5505;51.450;9.254;2023-02-13T01:34:01;7.90;99.90
10905;DHT22;5505;51.450;9.254;2023-02-13T01:36:48;6.40;99.90
10905;DHT22;5505;51.450;9.254;2023-02-13T01:39:35;5.50;99.90
10905;DHT22;5505;51.450;9.254;2023-02-13T01:42:24;5.50;99.90
10905;DHT22;5505;51.450;9.254;2023-02-13T01:45:22;5.90;99.90
10905;DHT22;5505;51.450;9.254;2023-02-13T01:48:12;5.40;99.90
10905;DHT22;5505;51.450;9.254;2023-02-13T01:51:04;5.40;99.90
10905;DHT22;5505;51.450;9.254;2023-02-13T01:53:56;5.40;99.90
10905;DHT22;5505;51.450;9.254;2023-02-13T01:56:47;5.40;99.90
10905;DHT22;5505;51.450;9.254;2023-02-13T01:59:41;5.40;99.90
10905;DHT22;5505;51.450;9.254;2023-02-13T02:02:31;5.40;99.90
10905;DHT22;5505;51.450;9.254;2023-02-13T02:05:21;5.50;99.90
10905;DHT22;5505;51.450;9.254;2023-02-13T02:08:12;5.40;99.90
10905;DHT22;5505;51.450;9.254;2023-02-13T02:11:12;5.30;99.90
10905;DHT22;5505;51.450;9.254;2023-02-13T02:14:01;5.40;99.90
10905;DHT22;5505;51.450;9.254;2023-02-13T02:16:48;5.30;99.90
10905;DHT22;5505;51.450;9.254;2023-02-13T02:19:38;5.30;99.90
10905;DHT22;5505;51.450;9.254;2023-02-13T02:26:35;5.40;99.90
10905;DHT22;5505;51.450;9.254;2023-02-13T02:30:03;5.30;99.90
10905;DHT22;5505;51.450;9.254;2023-02-13T02:33:02;5.30;99.90
10905;DHT22;5505;51.450;9.254;2023-02-13T02:35:58;5.30;99.90
10905;DHT22;5505;51.450;9.254;2023-02-13T02:38:59;5.40;99.90
10905;DHT22;5505;51.450;9.254;2023-02-13T02:41:58;5.30;99.90
10905;DHT22;5505;51.450;9.254;2023-02-13T02:44:55;5.30;99.90
10905;DHT22;5505;51.450;9.254;2023-02-13T02:47:49;5.30;99.90
10905;DHT22;5505;51.450;9.254;2023-02-13T02:51:00;5.20;99.90
10905;DHT22;5505;51.450;9.254;2023-02-13T02:53:56;5.20;99.90
10905;DHT22;5505;51.450;9.254;2023-02-13T02:56:45;5.20;99.90
10905;DHT22;5505;51.450;9.254;2023-02-13T02:59:35;5.30;99.90
10905;DHT22;5505;51.450;9.254;2023-02-13T03:02:40;5.20;99.90
10905;DHT22;5505;51.450;9.254;2023-02-13T03:05:46;5.20;99.90
10905;DHT22;5505;51.450;9.254;2023-02-13T03:08:54;5.20;99.90
10905;DHT22;5505;51.450;9.254;2023-02-13T03:11:59;5.20;99.90
10905;DHT22;5505;51.450;9.254;2023-02-13T03:15:05;5.20;99.90
10905;DHT22;5505;51.450;9.254;2023-02-13T03:17:52;5.30;99.90
10905;DHT22;5505;51.450;9.254;2023-02-13T03:21:04;5.30;99.90
10905;DHT22;5505;51.450;9.254;2023-02-13T03:24:16;5.30;99.90
10905;DHT22;5505;51.450;9.254;2023-02-13T03:27:08;5.30;99.90
10905;DHT22;5505;51.450;9.254;2023-02-13T03:30:02;5.40;99.90
10905;DHT22;5505;51.450;9.254;2023-02-13T03:33:02;5.40;99.90
10905;DHT22;5505;51.450;9.254;2023-02-13T03:36:00;5.40;99.90
10905;DHT22;5505;51.450;9.254;2023-02-13T03:39:10;7.00;99.90
10905;DHT22;5505;51.450;9.254;2023-02-13T03:42:01;5.30;99.90
10905;DHT22;5505;51.450;9.254;2023-02-13T03:44:55;5.40;99.90
10905;DHT22;5505;51.450;9.254;2023-02-13T03:47:58;5.30;99.90
10905;DHT22;5505;51.450;9.254;2023-02-13T03:50:45;5.30;99.90
10905;DHT22;5505;51.450;9.254;2023-02-13T03:53:34;5.30;99.90
10905;DHT22;5505;51.450;9.254;2023-02-13T03:56:25;5.30;99.90
10905;DHT22;5505;51.450;9.254;2023-02-13T03:59:34;5.30;99.90
10905;DHT22;5505;51.450;9.254;2023-02-13T04:02:24;5.30;99.90
10905;DHT22;5505;51.450;9.254;2023-02-13T04:05:16;5.30;99.90
10905;DHT22;5505;51.450;9.254;2023-02-13T04:08:04;5.20;99.90
10905;DHT22;5505;51.450;9.254;2023-02-13T04:10:54;5.20;99.90
10905;DHT22;5505;51.450;9.254;2023-02-13T04:13:46;5.00;99.90
10905;DHT22;5505;51.450;9.254;2023-02-13T04:16:39;4.90;99.90
10905;DHT22;5505;51.450;9.254;2023-02-13T04:19:27;4.80;99.90
10905;DHT22;5505;51.450;9.254;2023-02-13T04:22:14;4.90;99.90
10905;DHT22;5505;51.450;9.254;2023-02-13T04:25:01;4.90;99.90
10905;DHT22;5505;51.450;9.254;2023-02-13T04:27:48;5.00;99.90
10905;DHT22;5505;51.450;9.254;2023-02-13T04:30:34;5.00;99.90
10905;DHT22;5505;51.450;9.254;2023-02-13T04:33:22;4.90;99.90
10905;DHT22;5505;51.450;9.254;2023-02-13T04:36:09;5.00;99.90
10905;DHT22;5505;51.450;9.254;2023-02-13T04:38:56;5.00;99.90
10905;DHT22;5505;51.450;9.254;2023-02-13T04:41:43;4.90;99.90
10905;DHT22;5505;51.450;9.254;2023-02-13T04:44:30;4.90;99.90
10905;DHT22;5505;51.450;9.254;2023-02-13T04:47:16;4.80;99.90
10905;DHT22;5505;51.450;9.254;2023-02-13T04:50:05;4.70;99.90
10905;DHT22;5505;51.450;9.254;2023-02-13T04:52:53;4.70;99.90
10905;DHT22;5505;51.450;9.254;2023-02-13T04:55:40;4.80;99.90
10905;DHT22;5505;51.450;9.254;2023-02-13T04:58:27;4.70;99.90
10905;DHT22;5505;51.450;9.254;2023-02-13T05:01:15;4.70;99.90
10905;DHT22;5505;51.450;9.254;2023-02-13T05:04:02;4.70;99.90
10905;DHT22;5505;51.450;9.254;2023-02-13T05:06:50;4.70;99.90
10905;DHT22;5505;51.450;9.254;2023-02-13T05:09:37;4.70;99.90
10905;DHT22;5505;51.450;9.254;2023-02-13T05:12:24;6.90;99.90
10905;DHT22;5505;51.450;9.254;2023-02-13T05:15:10;5.80;99.90
10905;DHT22;5505;51.450;9.254;2023-02-13T05:17:57;4.60;99.90
10905;DHT22;5505;51.450;9.254;2023-02-13T05:20:44;4.60;99.90
10905;DHT22;5505;51.450;9.254;2023-02-13T05:23:52;4.60;99.90
10905;DHT22;5505;51.450;9.254;2023-02-13T05:26:38;4.60;99.90
10905;DHT22;5505;51.450;9.254;2023-02-13T05:29:25;4.70;99.90
10905;DHT22;5505;51.450;9.254;2023-02-13T05:32:12;4.70;99.90
10905;DHT22;5505;51.450;9.254;2023-02-13T05:34:58;4.80;99.90
10905;DHT22;5505;51.450;9.254;2023-02-13T05:37:45;5.10;99.90
10905;DHT22;5505;51.450;9.254;2023-02-13T05:40:33;4.60;99.90
10905;DHT22;5505;51.450;9.254;2023-02-13T05:43:20;6.30;99.90
10905;DHT22;5505;51.450;9.254;2023-02-13T05:46:08;4.50;99.90
10905;DHT22;5505;51.450;9.254;2023-02-13T05:48:55;4.60;99.90
10905;DHT22;5505;51.450;9.254;2023-02-13T05:51:42;4.70;99.90
10905;DHT22;5505;51.450;9.254;2023-02-13T05:54:30;4.70;99.90
10905;DHT22;5505;51.450;9.254;2023-02-13T05:57:19;4.70;99.90
10905;DHT22;5505;51.450;9.254;2023-02-13T06:00:06;4.70;99.90
10905;DHT22;5505;51.450;9.254;2023-02-13T06:02:53;4.60;99.90
10905;DHT22;5505;51.450;9.254;2023-02-13T06:05:40;4.60;99.90
10905;DHT22;5505;51.450;9.254;2023-02-13T06:08:27;4.60;99.90
10905;DHT22;5505;51.450;9.254;2023-02-13T06:11:14;4.70;99.90
10905;DHT22;5505;51.450;9.254;2023-02-13T06:14:02;4.80;99.90
10905;DHT22;5505;51.450;9.254;2023-02-13T06:16:48;4.70;99.90
10905;DHT22;5505;51.450;9.254;2023-02-13T06:19:35;4.70;99.90
10905;DHT22;5505;51.450;9.254;2023-02-13T06:22:22;4.70;99.90
10905;DHT22;5505;51.450;9.254;2023-02-13T06:25:09;4.70;99.90
10905;DHT22;5505;51.450;9.254;2023-02-13T06:27:55;5.30;99.90
10905;DHT22;5505;51.450;9.254;2023-02-13T06:30:44;4.70;99.90
10905;DHT22;5505;51.450;9.254;2023-02-13T06:33:31;4.80;99.90
10905;DHT22;5505;51.450;9.254;2023-02-13T06:36:17;4.80;99.90
10905;DHT22;5505;51.450;9.254;2023-02-13T06:39:04;4.80;99.90
10905;DHT22;5505;51.450;9.254;2023-02-13T06:41:51;5.00;99.90
10905;DHT22;5505;51.450;9.254;2023-02-13T06:44:38;4.80;99.90
10905;DHT22;5505;51.450;9.254;2023-02-13T06:47:26;4.80;99.90
10905;DHT22;5505;51.450;9.254;2023-02-13T06:50:14;4.80;99.90
10905;DHT22;5505;51.450;9.254;2023-02-13T06:53:01;4.70;99.90
10905;DHT22;5505;51.450;9.254;2023-02-13T06:55:50;4.80;99.90
10905;DHT22;5505;51.450;9.254;2023-02-13T06:58:37;4.70;99.90
10905;DHT22;5505;51.450;9.254;2023-02-13T07:01:24;5.00;99.90
10905;DHT22;5505;51.450;9.254;2023-02-13T07:04:12;4.70;99.90
10905;DHT22;5505;51.450;9.254;2023-02-13T07:06:59;4.80;99.90
10905;DHT22;5505;51.450;9.254;2023-02-13T07:09:46;6.40;99.90
10905;DHT22;5505;51.450;9.254;2023-02-13T07:12:33;4.90;99.90
10905;DHT22;5505;51.450;9.254;2023-02-13T07:15:21;4.90;99.90
10905;DHT22;5505;51.450;9.254;2023-02-13T07:18:08;4.80;99.90
10905;DHT22;5505;51.450;9.254;2023-02-13T07:20:56;4.80;99.90
10905;DHT22;5505;51.450;9.254;2023-02-13T07:23:43;4.80;99.90
10905;DHT22;5505;51.450;9.254;2023-02-13T07:26:31;4.70;99.90
10905;DHT22;5505;51.450;9.254;2023-02-13T07:29:18;4.80;99.90
10905;DHT22;5505;51.450;9.254;2023-02-13T07:32:05;4.80;99.90
10905;DHT22;5505;51.450;9.254;2023-02-13T07:34:53;4.80;99.90
10905;DHT22;5505;51.450;9.254;2023-02-13T07:37:41;4.70;99.90
10905;DHT22;5505;51.450;9.254;2023-02-13T07:40:28;4.80;99.90
10905;DHT22;5505;51.450;9.254;2023-02-13T07:43:15;4.90;99.90
10905;DHT22;5505;51.450;9.254;2023-02-13T07:46:02;4.90;99.90
10905;DHT22;5505;51.450;9.254;2023-02-13T07:48:50;4.90;99.90
10905;DHT22;5505;51.450;9.254;2023-02-13T07:51:37;4.90;99.90
10905;DHT22;5505;51.450;9.254;2023-02-13T07:54:25;4.90;99.90
10905;DHT22;5505;51.450;9.254;2023-02-13T07:57:12;5.20;99.90
10905;DHT22;5505;51.450;9.254;2023-02-13T07:59:59;5.00;99.90
10905;DHT22;5505;51.450;9.254;2023-02-13T08:02:46;5.00;99.90
10905;DHT22;5505;51.450;9.254;2023-02-13T08:05:33;5.00;99.90
10905;DHT22;5505;51.450;9.254;2023-02-13T08:08:20;5.00;99.90
10905;DHT22;5505;51.450;9.254;2023-02-13T08:11:27;5.10;99.90
10905;DHT22;5505;51.450;9.254;2023-02-13T08:14:33;5.10;99.90
10905;DHT22;5505;51.450;9.254;2023-02-13T08:17:20;5.10;99.90
10905;DHT22;5505;51.450;9.254;2023-02-13T08:20:08;5.10;99.90
10905;DHT22;5505;51.450;9.254;2023-02-13T08:23:01;5.20;99.90
10905;DHT22;5505;51.450;9.254;2023-02-13T08:25:49;5.60;99.90
10905;DHT22;5505;51.450;9.254;2023-02-13T08:28:37;5.20;99.90
10905;DHT22;5505;51.450;9.254;2023-02-13T08:31:24;6.80;99.90
10905;DHT22;5505;51.450;9.254;2023-02-13T08:34:11;5.30;99.90
10905;DHT22;5505;51.450;9.254;2023-02-13T08:36:58;5.30;99.90
10905;DHT22;5505;51.450;9.254;2023-02-13T08:39:44;5.70;99.90
10905;DHT22;5505;51.450;9.254;2023-02-13T08:42:31;5.40;99.90
10905;DHT22;5505;51.450;9.254;2023-02-13T08:45:19;5.40;99.90
10905;DHT22;5505;51.450;9.254;2023-02-13T08:48:06;5.40;99.90
10905;DHT22;5505;51.450;9.254;2023-02-13T08:50:53;6.00;99.90
10905;DHT22;5505;51.450;9.254;2023-02-13T08:53:40;5.40;99.90
10905;DHT22;5505;51.450;9.254;2023-02-13T08:56:28;5.40;99.90
10905;DHT22;5505;51.450;9.254;2023-02-13T08:59:14;5.40;99.90
10905;DHT22;5505;51.450;9.254;2023-02-13T09:02:02;5.40;99.90
10905;DHT22;5505;51.450;9.254;2023-02-13T09:04:49;5.30;99.90
10905;DHT22;5505;51.450;9.254;2023-02-13T09:07:36;5.40;99.90
10905;DHT22;5505;51.450;9.254;2023-02-13T09:10:23;5.60;99.90
10905;DHT22;5505;51.450;9.254;2023-02-13T09:13:10;5.40;99.90
10905;DHT22;5505;51.450;9.254;2023-02-13T09:15:58;5.60;99.90
10905;DHT22;5505;51.450;9.254;2023-02-13T09:18:47;5.60;99.90
10905;DHT22;5505;51.450;9.254;2023-02-13T09:21:34;5.60;99.90
10905;DHT22;5505;51.450;9.254;2023-02-13T09:24:21;5.70;99.90
10905;DHT22;5505;51.450;9.254;2023-02-13T09:27:08;5.70;99.90
10905;DHT22;5505;51.450;9.254;2023-02-13T09:29:54;5.60;99.90
10905;DHT22;5505;51.450;9.254;2023-02-13T09:32:41;5.70;99.90
10905;DHT22;5505;51.450;9.254;2023-02-13T09:35:29;7.30;99.90
10905;DHT22;5505;51.450;9.254;2023-02-13T09:38:16;5.80;99.90
10905;DHT22;5505;51.450;9.254;2023-02-13T09:41:06;6.00;99.90
10905;DHT22;5505;51.450;9.254;2023-02-13T09:43:57;5.90;99.90
10905;DHT22;5505;51.450;9.254;2023-02-13T09:46:45;6.00;99.90
10905;DHT22;5505;51.450;9.254;2023-02-13T09:49:35;6.10;99.90
10905;DHT22;5505;51.450;9.254;2023-02-13T09:52:25;6.20;99.90
10905;DHT22;5505;51.450;9.254;2023-02-13T09:55:15;6.00;99.90
10905;DHT22;5505;51.450;9.254;2023-02-13T09:58:08;5.90;99.90
10905;DHT22;5505;51.450;9.254;2023-02-13T10:01:02;6.10;99.90
10905;DHT22;5505;51.450;9.254;2023-02-13T10:04:01;6.10;99.90
10905;DHT22;5505;51.450;9.254;2023-02-13T10:07:04;6.10;99.90
10905;DHT22;5505;51.450;9.254;2023-02-13T10:10:00;6.10;99.90
10905;DHT22;5505;51.450;9.254;2023-02-13T10:12:55;6.10;99.90
10905;DHT22;5505;51.450;9.254;2023-02-13T10:15:50;6.10;99.90
10905;DHT22;5505;51.450;9.254;2023-02-13T10:18:44;6.20;99.90
10905;DHT22;5505;51.450;9.254;2023-02-13T10:21:34;6.30;99.90
10905;DHT22;5505;51.450;9.254;2023-02-13T10:24:29;6.40;99.90
10905;DHT22;5505;51.450;9.254;2023-02-13T10:27:21;6.40;99.90
10905;DHT22;5505;51.450;9.254;2023-02-13T10:30:15;6.40;99.90
10905;DHT22;5505;51.450;9.254;2023-02-13T10:33:09;6.90;99.90
10905;DHT22;5505;51.450;9.254;2023-02-13T10:36:15;6.80;99.90
10905;DHT22;5505;51.450;9.254;2023-02-13T10:39:20;7.20;99.90
10905;DHT22;5505;51.450;9.254;2023-02-13T10:42:13;7.20;99.90
10905;DHT22;5505;51.450;9.254;2023-02-13T10:45:20;7.40;99.90
10905;DHT22;5505;51.450;9.254;2023-02-13T10:48:24;7.70;99.90
10905;DHT22;5505;51.450;9.254;2023-02-13T10:51:19;8.00;99.90
10905;DHT22;5505;51.450;9.254;2023-02-13T10:54:22;8.10;99.90
10905;DHT22;5505;51.450;9.254;2023-02-13T10:57:15;8.30;99.90
10905;DHT22;5505;51.450;9.254;2023-02-13T11:00:11;8.30;99.90
10905;DHT22;5505;51.450;9.254;2023-02-13T11:03:00;8.30;99.90
10905;DHT22;5505;51.450;9.254;2023-02-13T11:05:48;9.00;99.90
10905;DHT22;5505;51.450;9.254;2023-02-13T11:08:39;8.40;99.90
10905;DHT22;5505;51.450;9.254;2023-02-13T11:11:28;8.40;99.90
10905;DHT22;5505;51.450;9.254;2023-02-13T11:14:17;8.30;99.90
10905;DHT22;5505;51.450;9.254;2023-02-13T11:17:11;8.20;99.90
10905;DHT22;5505;51.450;9.254;2023-02-13T11:20:06;8.30;99.90
10905;DHT22;5505;51.450;9.254;2023-02-13T11:22:54;8.40;99.90
10905;DHT22;5505;51.450;9.254;2023-02-13T11:25:52;8.40;99.90
10905;DHT22;5505;51.450;9.254;2023-02-13T11:28:48;8.40;99.90
10905;DHT22;5505;51.450;9.254;2023-02-13T11:31:36;8.50;99.90
10905;DHT22;5505;51.450;9.254;2023-02-13T11:34:26;8.60;99.90
10905;DHT22;5505;51.450;9.254;2023-02-13T11:37:24;8.60;99.90
10905;DHT22;5505;51.450;9.254;2023-02-13T11:40:28;8.70;99.90
10905;DHT22;5505;51.450;9.254;2023-02-13T11:43:18;8.80;99.90
10905;DHT22;5505;51.450;9.254;2023-02-13T11:46:13;9.00;99.90
10905;DHT22;5505;51.450;9.254;2023-02-13T11:49:04;9.10;99.90
10905;DHT22;5505;51.450;9.254;2023-02-13T11:51:54;9.50;99.90
10905;DHT22;5505;51.450;9.254;2023-02-13T11:54:44;9.30;99.90
10905;DHT22;5505;51.450;9.254;2023-02-13T11:57:32;9.40;99.90
10905;DHT22;5505;51.450;9.254;2023-02-13T12:00:26;9.50;99.90
10905;DHT22;5505;51.450;9.254;2023-02-13T12:03:25;9.60;99.90
10905;DHT22;5505;51.450;9.254;2023-02-13T12:06:14;9.60;99.90
10905;DHT22;5505;51.450;9.254;2023-02-13T12:09:08;9.60;99.90
10905;DHT22;5505;51.450;9.254;2023-02-13T12:11:59;9.70;99.90
10905;DHT22;5505;51.450;9.254;2023-02-13T12:14:48;9.80;99.90
10905;DHT22;5505;51.450;9.254;2023-02-13T12:17:35;10.00;99.90
10905;DHT22;5505;51.450;9.254;2023-02-13T12:20:23;9.90;99.90
10905;DHT22;5505;51.450;9.254;2023-02-13T12:23:23;9.90;99.90
10905;DHT22;5505;51.450;9.254;2023-02-13T12:26:22;10.00;99.90
10905;DHT22;5505;51.450;9.254;2023-02-13T12:29:31;10.90;99.90
10905;DHT22;5505;51.450;9.254;2023-02-13T12:32:29;9.90;99.90
10905;DHT22;5505;51.450;9.254;2023-02-13T12:35:35;9.90;99.90
10905;DHT22;5505;51.450;9.254;2023-02-13T12:38:39;9.90;99.90
10905;DHT22;5505;51.450;9.254;2023-02-13T12:41:37;9.90;99.90
10905;DHT22;5505;51.450;9.254;2023-02-13T12:48:09;10.00;99.90
10905;DHT22;5505;51.450;9.254;2023-02-13T12:51:06;10.00;99.90
10905;DHT22;5505;51.450;9.254;2023-02-13T12:54:14;10.60;99.90
10905;DHT22;5505;51.450;9.254;2023-02-13T12:57:17;9.90;99.90
10905;DHT22;5505;51.450;9.254;2023-02-13T13:00:19;9.90;99.90
10905;DHT22;5505;51.450;9.254;2023-02-13T13:03:27;10.00;99.90
10905;DHT22;5505;51.450;9.254;2023-02-13T13:06:25;10.00;99.90
10905;DHT22;5505;51.450;9.254;2023-02-13T13:09:40;9.90;99.90
10905;DHT22;5505;51.450;9.254;2023-02-13T13:12:41;10.00;99.90
10905;DHT22;5505;51.450;9.254;2023-02-13T13:15:34;10.00;99.90
10905;DHT22;5505;51.450;9.254;2023-02-13T13:18:32;10.00;99.90
10905;DHT22;5505;51.450;9.254;2023-02-13T13:21:28;10.60;99.90
10905;DHT22;5505;51.450;9.254;2023-02-13T13:24:27;11.30;99.90
10905;DHT22;5505;51.450;9.254;2023-02-13T13:27:19;11.10;99.90
10905;DHT22;5505;51.450;9.254;2023-02-13T13:30:17;10.00;99.90
10905;DHT22;5505;51.450;9.254;2023-02-13T13:33:15;10.00;99.90
10905;DHT22;5505;51.450;9.254;2023-02-13T13:36:06;10.00;99.90
10905;DHT22;5505;51.450;9.254;2023-02-13T13:38:59;10.00;99.90
10905;DHT22;5505;51.450;9.254;2023-02-13T13:41:53;10.00;99.90
10905;DHT22;5505;51.450;9.254;2023-02-13T13:44:51;10.00;99.90
10905;DHT22;5505;51.450;9.254;2023-02-13T13:47:57;10.90;99.90
10905;DHT22;5505;51.450;9.254;2023-02-13T13:50:47;10.00;99.90
10905;DHT22;5505;51.450;9.254;2023-02-13T13:53:34;10.20;99.90
10905;DHT22;5505;51.450;9.254;2023-02-13T13:56:23;10.10;99.90
10905;DHT22;5505;51.450;9.254;2023-02-13T13:59:15;10.10;99.90
10905;DHT22;5505;51.450;9.254;2023-02-13T14:02:35;10.00;99.90
10905;DHT22;5505;51.450;9.254;2023-02-13T14:05:30;9.90;99.90
10905;DHT22;5505;51.450;9.254;2023-02-13T14:08:52;11.20;99.90
10905;DHT22;5505;51.450;9.254;2023-02-13T14:11:42;9.90;99.90
10905;DHT22;5505;51.450;9.254;2023-02-13T14:14:49;9.90;99.90
10905;DHT22;5505;51.450;9.254;2023-02-13T14:17:53;10.00;99.90
10905;DHT22;5505;51.450;9.254;2023-02-13T14:20:49;10.00;99.90
10905;DHT22;5505;51.450;9.254;2023-02-13T14:23:44;10.10;99.90
10905;DHT22;5505;51.450;9.254;2023-02-13T14:26:38;10.10;99.90
10905;DHT22;5505;51.450;9.254;2023-02-13T14:29:31;10.00;99.90
10905;DHT22;5505;51.450;9.254;2023-02-13T14:32:22;9.90;99.90
10905;DHT22;5505;51.450;9.254;2023-02-13T14:35:17;10.00;99.90
10905;DHT22;5505;51.450;9.254;2023-02-13T14:38:20;9.90;99.90
10905;DHT22;5505;51.450;9.254;2023-02-13T14:44:32;9.90;99.90
10905;DHT22;5505;51.450;9.254;2023-02-13T14:47:24;9.80;99.90
10905;DHT22;5505;51.450;9.254;2023-02-13T14:50:17;10.60;99.90
10905;DHT22;5505;51.450;9.254;2023-02-13T14:53:16;9.80;99.90
10905;DHT22;5505;51.450;9.254;2023-02-13T14:56:12;9.70;99.90
10905;DHT22;5505;51.450;9.254;2023-02-13T14:59:12;9.70;99.90
10905;DHT22;5505;51.450;9.254;2023-02-13T15:02:12;9.60;99.90
10905;DHT22;5505;51.450;9.254;2023-02-13T15:05:06;9.60;99.90
10905;DHT22;5505;51.450;9.254;2023-02-13T15:08:04;9.60;99.90
10905;DHT22;5505;51.450;9.254;2023-02-13T15:10:55;9.50;99.90
10905;DHT22;5505;51.450;9.254;2023-02-13T15:13:42;9.60;99.90
10905;DHT22;5505;51.450;9.254;2023-02-13T15:16:29;9.50;99.90
10905;DHT22;5505;51.450;9.254;2023-02-13T15:19:17;9.50;99.90
10905;DHT22;5505;51.450;9.254;2023-02-13T15:22:05;9.50;99.90
10905;DHT22;5505;51.450;9.254;2023-02-13T15:24:52;9.40;99.90
10905;DHT22;5505;51.450;9.254;2023-02-13T15:27:42;9.40;99.90
10905;DHT22;5505;51.450;9.254;2023-02-13T15:30:30;9.50;99.90
10905;DHT22;5505;51.450;9.254;2023-02-13T15:33:19;9.70;99.90
10905;DHT22;5505;51.450;9.254;2023-02-13T15:36:06;9.40;99.90
10905;DHT22;5505;51.450;9.254;2023-02-13T15:38:57;9.40;99.90
10905;DHT22;5505;51.450;9.254;2023-02-13T15:41:46;9.30;99.90
10905;DHT22;5505;51.450;9.254;2023-02-13T15:44:37;9.30;99.90
10905;DHT22;5505;51.450;9.254;2023-02-13T15:47:27;10.20;99.90
10905;DHT22;5505;51.450;9.254;2023-02-13T15:50:20;9.10;99.90
10905;DHT22;5505;51.450;9.254;2023-02-13T15:53:13;9.10;99.90
10905;DHT22;5505;51.450;9.254;2023-02-13T15:56:02;9.90;99.90
10905;DHT22;5505;51.450;9.254;2023-02-13T15:58:50;9.00;99.90
10905;DHT22;5505;51.450;9.254;2023-02-13T16:01:39;8.90;99.90
10905;DHT22;5505;51.450;9.254;2023-02-13T16:04:28;8.90;99.90
10905;DHT22;5505;51.450;9.254;2023-02-13T16:07:15;8.90;99.90
10905;DHT22;5505;51.450;9.254;2023-02-13T16:10:15;8.80;99.90
10905;DHT22;5505;51.450;9.254;2023-02-13T16:13:04;8.70;99.90
10905;DHT22;5505;51.450;9.254;2023-02-13T16:15:51;8.50;99.90
10905;DHT22;5505;51.450;9.254;2023-02-13T16:18:40;8.40;99.90
10905;DHT22;5505;51.450;9.254;2023-02-13T16:21:28;9.60;99.90
10905;DHT22;5505;51.450;9.254;2023-02-13T16:24:16;8.20;99.90
10905;DHT22;5505;51.450;9.254;2023-02-13T16:27:03;8.20;99.90
10905;DHT22;5505;51.450;9.254;2023-02-13T16:29:59;8.70;99.90
10905;DHT22;5505;51.450;9.254;2023-02-13T16:32:47;9.20;99.90
10905;DHT22;5505;51.450;9.254;2023-02-13T16:35:36;8.80;99.90
10905;DHT22;5505;51.450;9.254;2023-02-13T16:38:27;8.00;99.90
10905;DHT22;5505;51.450;9.254;2023-02-13T16:41:29;7.90;99.90
10905;DHT22;5505;51.450;9.254;2023-02-13T16:44:25;7.80;99.90
10905;DHT22;5505;51.450;9.254;2023-02-13T16:47:20;7.80;99.90
10905;DHT22;5505;51.450;9.254;2023-02-13T16:50:13;7.80;99.90
10905;DHT22;5505;51.450;9.254;2023-02-13T16:53:02;7.70;99.90
10905;DHT22;5505;51.450;9.254;2023-02-13T16:55:56;7.60;99.90
10905;DHT22;5505;51.450;9.254;2023-02-13T16:58:43;7.60;99.90
10905;DHT22;5505;51.450;9.254;2023-02-13T17:01:30;7.50;99.90
10905;DHT22;5505;51.450;9.254;2023-02-13T17:04:20;7.40;99.90
10905;DHT22;5505;51.450;9.254;2023-02-13T17:07:11;7.30;99.90
10905;DHT22;5505;51.450;9.254;2023-02-13T17:10:03;7.40;99.90
10905;DHT22;5505;51.450;9.254;2023-02-13T17:12:50;7.10;99.90
10905;DHT22;5505;51.450;9.254;2023-02-13T17:15:40;7.00;99.90
10905;DHT22;5505;51.450;9.254;2023-02-13T17:18:28;6.80;99.90
10905;DHT22;5505;51.450;9.254;2023-02-13T17:21:15;6.70;99.90
10905;DHT22;5505;51.450;9.254;2023-02-13T17:24:02;6.70;99.90
10905;DHT22;5505;51.450;9.254;2023-02-13T17:26:50;6.50;99.90
10905;DHT22;5505;51.450;9.254;2023-02-13T17:29:37;6.50;99.90
10905;DHT22;5505;51.450;9.254;2023-02-13T17:32:25;6.40;99.90
10905;DHT22;5505;51.450;9.254;2023-02-13T17:35:13;6.30;99.90
10905;DHT22;5505;51.450;9.254;2023-02-13T17:38:01;6.20;99.90
10905;DHT22;5505;51.450;9.254;2023-02-13T17:40:48;8.00;99.90
10905;DHT22;5505;51.450;9.254;2023-02-13T17:43:36;6.10;99.90
10905;DHT22;5505;51.450;9.254;2023-02-13T17:46:23;6.10;99.90
10905;DHT22;5505;51.450;9.254;2023-02-13T17:49:09;7.10;99.90
10905;DHT22;5505;51.450;9.254;2023-02-13T17:51:56;5.90;99.90
10905;DHT22;5505;51.450;9.254;2023-02-13T17:54:43;5.70;99.90
10905;DHT22;5505;51.450;9.254;2023-02-13T17:57:30;5.60;99.90
10905;DHT22;5505;51.450;9.254;2023-02-13T18:00:19;5.40;99.90
10905;DHT22;5505;51.450;9.254;2023-02-13T18:03:06;5.40;99.90
10905;DHT22;5505;51.450;9.254;2023-02-13T18:05:53;5.30;99.90
10905;DHT22;5505;51.450;9.254;2023-02-13T18:08:40;5.30;99.90
10905;DHT22;5505;51.450;9.254;2023-02-13T18:11:27;5.30;99.90
10905;DHT22;5505;51.450;9.254;2023-02-13T18:14:13;5.30;99.90
10905;DHT22;5505;51.450;9.254;2023-02-13T18:17:02;5.20;99.90
10905;DHT22;5505;51.450;9.254;2023-02-13T18:19:48;5.20;99.90
10905;DHT22;5505;51.450;9.254;2023-02-13T18:22:36;6.80;99.90
10905;DHT22;5505;51.450;9.254;2023-02-13T18:25:22;5.20;99.90
10905;DHT22;5505;51.450;9.254;2023-02-13T18:28:09;5.10;99.90
10905;DHT22;5505;51.450;9.254;2023-02-13T18:30:56;6.60;99.90
10905;DHT22;5505;51.450;9.254;2023-02-13T18:33:45;5.00;99.90
10905;DHT22;5505;51.450;9.254;2023-02-13T18:36:31;4.80;99.90
10905;DHT22;5505;51.450;9.254;2023-02-13T18:39:18;4.70;99.90
10905;DHT22;5505;51.450;9.254;2023-02-13T18:42:05;4.50;99.90
10905;DHT22;5505;51.450;9.254;2023-02-13T18:44:52;4.40;99.90
10905;DHT22;5505;51.450;9.254;2023-02-13T18:47:39;4.40;99.90